createdAt,value
2017-07-18T00:00:45.780Z,92.39
2017-07-18T00:01:46.355Z,93.93
2017-07-18T00:02:46.934Z,94.12
2017-07-18T00:03:47.509Z,95.51
2017-07-18T00:04:48.091Z,94.26
2017-07-18T00:05:48.668Z,91.86
2017-07-18T00:06:49.242Z,92.72
2017-07-18T00:07:49.816Z,93.54
2017-07-18T00:08:50.393Z,93.16
2017-07-18T00:09:50.968Z,94.02
2017-07-18T00:10:51.543Z,93.93
2017-07-18T00:11:52.119Z,94.40
2017-07-18T00:12:52.695Z,94.54
2017-07-18T00:13:53.271Z,93.97
2017-07-18T00:14:53.845Z,93.63
2017-07-18T00:15:54.422Z,93.83
2017-07-18T00:16:54.997Z,95.46
2017-07-18T00:17:55.571Z,95.60
2017-07-18T00:18:56.147Z,94.79
2017-07-18T00:19:56.724Z,94.89
2017-07-18T00:20:57.312Z,94.69
2017-07-18T00:21:57.891Z,94.93
2017-07-18T00:22:58.479Z,95.41
2017-07-18T00:23:59.054Z,97.14
2017-07-18T00:24:59.638Z,97.04
2017-07-18T00:26:00.209Z,97.66
2017-07-18T00:27:00.785Z,96.61
2017-07-18T00:28:01.361Z,97.66
2017-07-18T00:29:01.938Z,96.18
2017-07-18T00:30:02.514Z,97.14
2017-07-18T00:31:03.088Z,97.47
2017-07-18T00:32:03.663Z,95.89
2017-07-18T00:33:04.239Z,98.19
2017-07-18T00:34:04.815Z,96.18
2017-07-18T00:35:05.390Z,96.08
2017-07-18T00:36:05.965Z,97.23
2017-07-18T00:37:06.540Z,95.70
2017-07-18T00:38:07.114Z,97.52
2017-07-18T00:39:07.686Z,97.61
2017-07-18T00:40:08.261Z,97.09
2017-07-18T00:41:08.835Z,95.56
2017-07-18T00:42:09.412Z,96.18
2017-07-18T00:43:09.987Z,97.52
2017-07-18T00:44:10.561Z,97.61
2017-07-18T00:45:11.148Z,97.80
2017-07-18T00:46:11.730Z,96.56
2017-07-18T00:47:12.300Z,96.84
2017-07-18T00:48:12.877Z,97.14
2017-07-18T00:49:13.454Z,99.05
2017-07-18T00:50:14.034Z,98.00
2017-07-18T00:51:14.618Z,97.18
2017-07-18T00:52:15.195Z,95.98
2017-07-18T00:53:15.773Z,96.75
2017-07-18T00:54:16.349Z,98.05
2017-07-18T00:55:16.925Z,96.75
2017-07-18T00:56:17.502Z,95.79
2017-07-18T00:57:18.077Z,97.42
2017-07-18T00:58:18.656Z,97.04
2017-07-18T00:59:19.238Z,96.27
2017-07-18T01:00:19.816Z,98.62
2017-07-18T01:01:20.390Z,98.28
2017-07-18T01:02:20.968Z,97.47
2017-07-18T01:03:21.554Z,99.77
2017-07-18T01:04:22.131Z,98.91
2017-07-18T01:05:22.716Z,99.99
2017-07-18T01:06:23.284Z,98.57
2017-07-18T01:07:23.860Z,98.71
2017-07-18T01:08:24.435Z,98.43
2017-07-18T01:09:25.010Z,99.24
2017-07-18T01:10:25.590Z,97.47
2017-07-18T01:11:26.175Z,99.05
2017-07-18T01:12:26.754Z,97.47
2017-07-18T01:13:27.329Z,98.81
2017-07-18T01:14:27.906Z,99.99
2017-07-18T01:15:28.479Z,99.33
2017-07-18T01:16:29.057Z,99.19
2017-07-18T01:17:29.632Z,99.99
2017-07-18T01:18:30.208Z,98.62
2017-07-18T01:19:30.783Z,99.99
2017-07-18T01:20:31.359Z,99.99
2017-07-18T01:21:31.933Z,99.99
2017-07-18T01:22:32.509Z,98.91
2017-07-18T01:23:33.085Z,99.19
2017-07-18T01:24:33.660Z,97.66
2017-07-18T01:25:34.236Z,99.99
2017-07-18T01:26:34.814Z,98.76
2017-07-18T01:27:35.390Z,99.99
2017-07-18T01:28:35.964Z,99.99
2017-07-18T01:29:36.541Z,99.99
2017-07-18T01:30:37.118Z,99.99
2017-07-18T01:31:37.694Z,97.47
2017-07-18T01:32:38.283Z,99.62
2017-07-18T01:33:38.857Z,98.95
2017-07-18T01:34:39.442Z,99.99
2017-07-18T01:35:40.017Z,99.99
2017-07-18T01:36:40.594Z,99.99
2017-07-18T01:37:41.167Z,99.99
2017-07-18T01:38:41.742Z,99.99
2017-07-18T01:39:42.317Z,99.99
2017-07-18T01:40:42.906Z,99.99
2017-07-18T01:41:43.506Z,99.99
2017-07-18T01:42:44.071Z,99.99
2017-07-18T01:43:44.645Z,99.99
2017-07-18T01:44:45.221Z,99.99
2017-07-18T01:45:45.796Z,99.91
2017-07-18T01:46:46.373Z,99.99
2017-07-18T01:47:46.947Z,99.99
2017-07-18T01:48:47.526Z,99.99
2017-07-18T01:49:48.099Z,99.99
2017-07-18T01:50:48.674Z,99.99
2017-07-18T01:51:49.246Z,99.99
2017-07-18T01:52:49.825Z,99.99
2017-07-18T01:53:50.401Z,99.99
2017-07-18T01:54:50.971Z,99.99
2017-07-18T01:55:51.544Z,99.99
2017-07-18T01:56:52.120Z,99.99
2017-07-18T01:57:52.694Z,99.99
2017-07-18T01:58:53.269Z,99.99
2017-07-18T01:59:53.842Z,99.99
2017-07-18T02:00:54.419Z,99.99
2017-07-18T02:01:54.993Z,99.99
2017-07-18T02:02:55.568Z,99.99
2017-07-18T02:03:56.143Z,99.99
2017-07-18T02:04:56.720Z,99.99
2017-07-18T02:05:57.297Z,99.99
2017-07-18T02:06:57.885Z,99.99
2017-07-18T02:07:58.460Z,99.99
2017-07-18T02:08:59.038Z,99.99
2017-07-18T02:09:59.614Z,99.99
2017-07-18T02:11:00.191Z,99.99
2017-07-18T02:12:00.771Z,99.99
2017-07-18T02:13:01.341Z,99.99
2017-07-18T02:14:01.921Z,99.99
2017-07-18T02:15:02.505Z,99.99
2017-07-18T02:16:03.091Z,99.99
2017-07-18T02:17:03.672Z,99.99
2017-07-18T02:18:04.241Z,99.99
2017-07-18T02:19:04.812Z,99.99
2017-07-18T02:20:05.387Z,99.99
2017-07-18T02:21:05.961Z,99.99
2017-07-18T02:22:06.537Z,99.99
2017-07-18T02:23:07.109Z,99.99
2017-07-18T02:24:07.684Z,99.99
2017-07-18T02:25:08.257Z,99.99
2017-07-18T02:26:08.832Z,99.99
2017-07-18T02:27:09.405Z,99.99
2017-07-18T02:28:09.980Z,99.99
2017-07-18T02:29:10.555Z,99.99
2017-07-18T02:30:11.128Z,99.99
2017-07-18T02:31:11.699Z,99.99
2017-07-18T02:32:12.275Z,99.99
2017-07-18T02:33:12.848Z,99.99
2017-07-18T02:34:13.422Z,99.99
2017-07-18T02:35:13.995Z,99.99
2017-07-18T02:36:14.569Z,99.99
2017-07-18T02:37:15.142Z,99.99
2017-07-18T02:38:15.718Z,99.99
2017-07-18T02:39:16.313Z,99.99
2017-07-18T02:40:16.879Z,99.99
2017-07-18T02:41:17.467Z,99.99
2017-07-18T02:42:18.043Z,99.99
2017-07-18T02:43:18.617Z,99.99
2017-07-18T02:44:19.202Z,99.52
2017-07-18T02:45:19.775Z,99.99
2017-07-18T02:46:20.349Z,99.99
2017-07-18T02:47:20.919Z,99.99
2017-07-18T02:48:21.495Z,99.99
2017-07-18T02:49:22.069Z,99.99
2017-07-18T02:50:22.652Z,99.38
2017-07-18T02:51:23.219Z,99.99
2017-07-18T02:52:23.806Z,99.99
2017-07-18T02:53:24.381Z,99.99
2017-07-18T02:54:24.955Z,99.99
2017-07-18T02:55:25.530Z,99.99
2017-07-18T02:56:26.116Z,99.99
2017-07-18T02:57:26.690Z,99.99
2017-07-18T02:58:27.268Z,99.99
2017-07-18T02:59:27.854Z,99.99
2017-07-18T03:00:28.428Z,99.99
2017-07-18T03:01:29.003Z,99.99
2017-07-18T03:02:29.580Z,99.99
2017-07-18T03:03:30.156Z,99.99
2017-07-18T03:04:30.733Z,99.99
2017-07-18T03:05:31.306Z,99.99
2017-07-18T03:06:31.893Z,99.99
2017-07-18T03:07:32.468Z,99.99
2017-07-18T03:08:33.046Z,99.99
2017-07-18T03:09:33.633Z,99.99
2017-07-18T03:10:34.206Z,99.99
2017-07-18T03:11:34.793Z,99.99
2017-07-18T03:12:35.368Z,99.99
2017-07-18T03:13:35.943Z,99.99
2017-07-18T03:14:36.518Z,99.99
2017-07-18T03:15:37.091Z,99.99
2017-07-18T03:16:37.666Z,99.99
2017-07-18T03:17:38.238Z,99.99
2017-07-18T03:18:38.814Z,99.99
2017-07-18T03:19:39.386Z,99.99
2017-07-18T03:20:39.961Z,99.99
2017-07-18T03:21:40.534Z,99.99
2017-07-18T03:22:41.110Z,99.99
2017-07-18T03:23:41.683Z,99.99
2017-07-18T03:24:42.256Z,99.99
2017-07-18T03:25:42.829Z,99.99
2017-07-18T03:26:43.403Z,99.99
2017-07-18T03:27:43.978Z,99.99
2017-07-18T03:28:44.558Z,99.99
2017-07-18T03:29:45.141Z,99.99
2017-07-18T03:30:45.718Z,99.99
2017-07-18T03:31:46.293Z,99.99
2017-07-18T03:32:46.874Z,99.99
2017-07-18T03:33:47.456Z,99.99
2017-07-18T03:34:48.030Z,99.99
2017-07-18T03:35:48.617Z,99.99
2017-07-18T03:36:49.196Z,99.99
2017-07-18T03:37:49.770Z,99.99
2017-07-18T03:38:50.348Z,99.99
2017-07-18T03:39:50.922Z,99.99
2017-07-18T03:40:51.496Z,99.99
2017-07-18T03:41:52.069Z,99.99
2017-07-18T03:42:52.646Z,99.99
2017-07-18T03:43:53.219Z,99.99
2017-07-18T03:44:53.807Z,99.99
2017-07-18T03:45:54.382Z,99.99
2017-07-18T03:46:54.959Z,99.99
2017-07-18T03:47:55.534Z,99.99
2017-07-18T03:48:56.110Z,99.99
2017-07-18T03:49:56.683Z,99.99
2017-07-18T03:50:57.266Z,99.99
2017-07-18T03:51:57.841Z,99.99
2017-07-18T03:52:58.409Z,99.99
2017-07-18T03:53:58.983Z,99.99
2017-07-18T03:54:59.568Z,99.99
2017-07-18T03:56:00.138Z,99.99
2017-07-18T03:57:00.715Z,99.99
2017-07-18T03:58:01.289Z,99.99
2017-07-18T03:59:01.864Z,99.99
2017-07-18T04:00:02.452Z,99.99
2017-07-18T04:01:03.038Z,99.99
2017-07-18T04:02:03.602Z,99.99
2017-07-18T04:03:04.177Z,99.99
2017-07-18T04:04:04.754Z,99.99
2017-07-18T04:05:05.339Z,99.99
2017-07-18T04:06:05.915Z,99.99
2017-07-18T04:07:06.488Z,99.99
2017-07-18T04:08:07.065Z,99.99
2017-07-18T04:09:07.640Z,99.99
2017-07-18T04:10:08.217Z,99.99
2017-07-18T04:11:08.793Z,99.99
2017-07-18T04:12:09.371Z,99.99
2017-07-18T04:13:09.947Z,99.99
2017-07-18T04:14:10.527Z,99.99
2017-07-18T04:15:11.101Z,99.99
2017-07-18T04:16:11.678Z,99.99
2017-07-18T04:17:12.254Z,99.99
2017-07-18T04:18:12.844Z,99.99
2017-07-18T04:19:13.420Z,99.99
2017-07-18T04:20:13.998Z,99.99
2017-07-18T04:21:14.574Z,99.99
2017-07-18T04:22:15.155Z,99.99
2017-07-18T04:23:15.737Z,99.99
2017-07-18T04:24:16.319Z,99.99
2017-07-18T04:25:16.893Z,99.99
2017-07-18T04:26:17.473Z,99.99
2017-07-18T04:27:18.060Z,99.99
2017-07-18T04:28:18.638Z,99.99
2017-07-18T04:29:19.214Z,99.99
2017-07-18T04:30:19.791Z,99.99
2017-07-18T04:31:20.365Z,99.99
2017-07-18T04:32:20.941Z,99.99
2017-07-18T04:33:21.518Z,99.99
2017-07-18T04:34:22.097Z,99.99
2017-07-18T04:35:22.675Z,99.99
2017-07-18T04:36:23.253Z,99.99
2017-07-18T04:37:23.831Z,99.99
2017-07-18T04:38:24.410Z,99.99
2017-07-18T04:39:24.987Z,99.99
2017-07-18T04:40:25.567Z,99.99
2017-07-18T04:41:26.143Z,99.99
2017-07-18T04:42:26.724Z,99.99
2017-07-18T04:43:27.301Z,99.99
2017-07-18T04:44:27.906Z,99.99
2017-07-18T04:45:28.470Z,99.99
2017-07-18T04:46:29.050Z,99.96
2017-07-18T04:47:29.629Z,99.99
2017-07-18T04:48:30.204Z,99.99
2017-07-18T04:49:30.783Z,99.99
2017-07-18T04:50:31.362Z,99.99
2017-07-18T04:51:31.941Z,99.99
2017-07-18T04:52:32.518Z,99.99
2017-07-18T04:53:33.094Z,99.99
2017-07-18T04:54:33.673Z,99.99
2017-07-18T04:55:34.251Z,99.99
2017-07-18T04:56:34.830Z,99.99
2017-07-18T04:57:35.406Z,99.99
2017-07-18T04:58:35.984Z,99.99
2017-07-18T04:59:36.564Z,99.19
2017-07-18T05:00:37.142Z,99.99
2017-07-18T05:01:37.722Z,99.99
2017-07-18T05:02:38.298Z,99.99
2017-07-18T05:03:38.877Z,99.99
2017-07-18T05:04:39.456Z,99.99
2017-07-18T05:05:40.032Z,99.99
2017-07-18T05:06:40.612Z,99.99
2017-07-18T05:07:41.203Z,99.99
2017-07-18T05:08:41.780Z,99.15
2017-07-18T05:09:42.357Z,97.28
2017-07-18T05:10:42.936Z,98.86
2017-07-18T05:11:43.514Z,99.99
2017-07-18T05:12:44.095Z,99.00
2017-07-18T05:13:44.679Z,99.19
2017-07-18T05:14:45.248Z,99.00
2017-07-18T05:15:45.826Z,97.85
2017-07-18T05:16:46.417Z,98.05
2017-07-18T05:17:46.993Z,99.58
2017-07-18T05:18:47.573Z,98.43
2017-07-18T05:19:48.164Z,99.48
2017-07-18T05:20:48.741Z,98.62
2017-07-18T05:21:49.320Z,98.81
2017-07-18T05:22:49.897Z,97.80
2017-07-18T05:23:50.476Z,96.56
2017-07-18T05:24:51.054Z,96.61
2017-07-18T05:25:51.631Z,97.33
2017-07-18T05:26:52.211Z,96.84
2017-07-18T05:27:52.788Z,97.42
2017-07-18T05:28:53.368Z,96.61
2017-07-18T05:29:53.945Z,94.17
2017-07-18T05:30:54.531Z,95.41
2017-07-18T05:31:55.114Z,95.12
2017-07-18T05:32:55.696Z,95.46
2017-07-18T05:33:56.275Z,94.84
2017-07-18T05:34:56.854Z,94.64
2017-07-18T05:35:57.433Z,95.56
2017-07-18T05:36:58.009Z,94.31
2017-07-18T05:37:58.590Z,93.83
2017-07-18T05:38:59.169Z,94.50
2017-07-18T05:39:59.748Z,93.83
2017-07-18T05:41:00.326Z,92.97
2017-07-18T05:42:00.906Z,93.40
2017-07-18T05:43:01.497Z,94.84
2017-07-18T05:44:02.077Z,94.12
2017-07-18T05:45:02.655Z,94.26
2017-07-18T05:46:03.240Z,92.91
2017-07-18T05:47:03.827Z,92.24
2017-07-18T05:48:04.404Z,92.05
2017-07-18T05:49:04.990Z,91.96
2017-07-18T05:50:05.578Z,93.83
2017-07-18T05:51:06.154Z,93.26
2017-07-18T05:52:06.733Z,94.35
2017-07-18T05:53:07.314Z,93.35
2017-07-18T05:54:07.893Z,93.01
2017-07-18T05:55:08.472Z,93.59
2017-07-18T05:56:09.051Z,93.59
2017-07-18T05:57:09.631Z,93.63
2017-07-18T05:58:10.212Z,92.91
2017-07-18T05:59:10.790Z,93.11
2017-07-18T06:00:11.370Z,94.17
2017-07-18T06:01:11.946Z,94.17
2017-07-18T06:02:12.533Z,93.97
2017-07-18T06:03:13.116Z,93.30
2017-07-18T06:04:13.700Z,94.07
2017-07-18T06:05:14.274Z,93.68
2017-07-18T06:06:14.855Z,93.40
2017-07-18T06:07:15.432Z,93.01
2017-07-18T06:08:16.021Z,92.39
2017-07-18T06:09:16.588Z,91.52
2017-07-18T06:10:17.168Z,91.72
2017-07-18T06:11:17.758Z,91.62
2017-07-18T06:12:18.339Z,90.56
2017-07-18T06:13:18.919Z,92.29
2017-07-18T06:14:19.499Z,92.82
2017-07-18T06:15:20.076Z,92.72
2017-07-18T06:16:20.655Z,91.42
2017-07-18T06:17:21.234Z,91.91
2017-07-18T06:18:21.815Z,91.38
2017-07-18T06:19:22.394Z,90.70
2017-07-18T06:20:22.974Z,90.80
2017-07-18T06:21:23.552Z,90.03
2017-07-18T06:22:24.133Z,90.22
2017-07-18T06:23:24.711Z,90.03
2017-07-18T06:24:25.296Z,88.83
2017-07-18T06:25:25.871Z,89.98
2017-07-18T06:26:26.451Z,88.59
2017-07-18T06:27:27.031Z,89.84
2017-07-18T06:28:27.611Z,90.03
2017-07-18T06:29:28.189Z,89.89
2017-07-18T06:30:28.768Z,89.69
2017-07-18T06:31:29.348Z,89.02
2017-07-18T06:32:29.928Z,89.50
2017-07-18T06:33:30.507Z,88.64
2017-07-18T06:34:31.087Z,88.59
2017-07-18T06:35:31.664Z,88.88
2017-07-18T06:36:32.248Z,88.73
2017-07-18T06:37:32.824Z,88.73
2017-07-18T06:38:33.405Z,88.25
2017-07-18T06:39:33.986Z,88.45
2017-07-18T06:40:34.566Z,88.25
2017-07-18T06:41:35.154Z,87.68
2017-07-18T06:42:35.734Z,88.45
2017-07-18T06:43:36.313Z,87.82
2017-07-18T06:44:36.894Z,88.88
2017-07-18T06:45:37.476Z,89.07
2017-07-18T06:46:38.068Z,88.06
2017-07-18T06:47:38.668Z,87.62
2017-07-18T06:48:39.230Z,86.66
2017-07-18T06:49:39.818Z,85.71
2017-07-18T06:50:40.401Z,85.41
2017-07-18T06:51:40.977Z,85.80
2017-07-18T06:52:41.554Z,86.38
2017-07-18T06:53:42.132Z,85.95
2017-07-18T06:54:42.713Z,85.75
2017-07-18T06:55:43.292Z,87.01
2017-07-18T06:56:43.874Z,85.95
2017-07-18T06:57:44.454Z,86.38
2017-07-18T06:58:45.032Z,85.07
2017-07-18T06:59:45.624Z,84.01
2017-07-18T07:00:46.203Z,83.73
2017-07-18T07:01:46.783Z,83.15
2017-07-18T07:02:47.365Z,83.06
2017-07-18T07:03:47.944Z,82.09
2017-07-18T07:04:48.524Z,82.71
2017-07-18T07:05:49.102Z,82.76
2017-07-18T07:06:49.684Z,82.71
2017-07-18T07:07:50.264Z,83.09
2017-07-18T07:08:50.845Z,82.32
2017-07-18T07:09:51.425Z,82.27
2017-07-18T07:10:52.003Z,80.83
2017-07-18T07:11:52.583Z,81.17
2017-07-18T07:12:53.176Z,82.04
2017-07-18T07:13:53.758Z,82.61
2017-07-18T07:14:54.339Z,80.69
2017-07-18T07:15:54.920Z,81.40
2017-07-18T07:16:55.500Z,81.30
2017-07-18T07:17:56.078Z,81.65
2017-07-18T07:18:56.663Z,80.98
2017-07-18T07:19:57.240Z,80.88
2017-07-18T07:20:57.834Z,80.60
2017-07-18T07:21:58.413Z,80.35
2017-07-18T07:22:58.993Z,80.10
2017-07-18T07:23:59.572Z,79.13
2017-07-18T07:25:00.159Z,78.42
2017-07-18T07:26:00.738Z,79.67
2017-07-18T07:27:01.313Z,78.27
2017-07-18T07:28:01.894Z,79.23
2017-07-18T07:29:02.474Z,78.27
2017-07-18T07:30:03.052Z,78.33
2017-07-18T07:31:03.632Z,78.17
2017-07-18T07:32:04.213Z,77.75
2017-07-18T07:33:04.794Z,78.46
2017-07-18T07:34:05.376Z,78.02
2017-07-18T07:35:05.959Z,77.15
2017-07-18T07:36:06.551Z,76.86
2017-07-18T07:37:07.130Z,76.44
2017-07-18T07:38:07.712Z,78.27
2017-07-18T07:39:08.292Z,77.01
2017-07-18T07:40:08.879Z,78.31
2017-07-18T07:41:09.453Z,78.02
2017-07-18T07:42:10.035Z,76.96
2017-07-18T07:43:10.614Z,75.42
2017-07-18T07:44:11.197Z,75.16
2017-07-18T07:45:11.777Z,75.26
2017-07-18T07:46:12.364Z,75.36
2017-07-18T07:47:12.939Z,75.26
2017-07-18T07:48:13.531Z,74.16
2017-07-18T07:49:14.111Z,75.32
2017-07-18T07:50:14.691Z,76.23
2017-07-18T07:51:15.271Z,75.16
2017-07-18T07:52:15.852Z,74.52
2017-07-18T07:53:16.433Z,74.01
2017-07-18T07:54:17.015Z,73.95
2017-07-18T07:55:17.596Z,72.89
2017-07-18T07:56:18.175Z,72.12
2017-07-18T07:57:18.756Z,71.54
2017-07-18T07:58:19.339Z,72.12
2017-07-18T07:59:19.918Z,72.96
2017-07-18T08:00:20.502Z,71.28
2017-07-18T08:01:21.080Z,72.06
2017-07-18T08:02:21.662Z,71.77
2017-07-18T08:03:22.246Z,72.60
2017-07-18T08:04:22.826Z,71.77
2017-07-18T08:05:23.408Z,72.89
2017-07-18T08:06:23.987Z,72.95
2017-07-18T08:07:24.568Z,73.18
2017-07-18T08:08:25.151Z,73.33
2017-07-18T08:09:25.733Z,73.66
2017-07-18T08:10:26.315Z,72.79
2017-07-18T08:11:26.898Z,72.12
2017-07-18T08:12:27.477Z,72.79
2017-07-18T08:13:28.061Z,72.79
2017-07-18T08:14:28.643Z,72.15
2017-07-18T08:15:29.223Z,71.73
2017-07-18T08:16:29.804Z,73.08
2017-07-18T08:17:30.386Z,71.64
2017-07-18T08:18:30.971Z,71.67
2017-07-18T08:19:31.549Z,70.70
2017-07-18T08:20:32.131Z,71.19
2017-07-18T08:21:32.710Z,71.67
2017-07-18T08:22:33.295Z,71.58
2017-07-18T08:23:33.875Z,71.28
2017-07-18T08:24:34.460Z,72.41
2017-07-18T08:25:35.038Z,73.75
2017-07-18T08:26:35.620Z,72.60
2017-07-18T08:27:36.204Z,72.54
2017-07-18T08:28:36.796Z,72.73
2017-07-18T08:29:37.378Z,71.48
2017-07-18T08:30:37.960Z,71.44
2017-07-18T08:31:38.543Z,72.25
2017-07-18T08:32:39.125Z,71.80
2017-07-18T08:33:39.705Z,69.84
2017-07-18T08:34:40.289Z,70.32
2017-07-18T08:35:40.869Z,71.19
2017-07-18T08:36:41.452Z,69.87
2017-07-18T08:37:42.046Z,69.26
2017-07-18T08:38:42.640Z,69.84
2017-07-18T08:39:43.218Z,70.54
2017-07-18T08:40:43.802Z,69.87
2017-07-18T08:41:44.383Z,69.90
2017-07-18T08:42:44.965Z,67.62
2017-07-18T08:43:45.559Z,66.20
2017-07-18T08:44:46.140Z,67.69
2017-07-18T08:45:46.722Z,67.62
2017-07-18T08:46:47.305Z,67.46
2017-07-18T08:47:47.886Z,66.88
2017-07-18T08:48:48.469Z,67.08
2017-07-18T08:49:49.049Z,65.40
2017-07-18T08:50:49.632Z,64.59
2017-07-18T08:51:50.216Z,66.08
2017-07-18T08:52:50.796Z,66.20
2017-07-18T08:53:51.377Z,65.59
2017-07-18T08:54:51.959Z,65.59
2017-07-18T08:55:52.552Z,66.30
2017-07-18T08:56:53.135Z,66.63
2017-07-18T08:57:53.730Z,65.08
2017-07-18T08:58:54.311Z,62.70
2017-07-18T08:59:54.893Z,64.56
2017-07-18T09:00:55.476Z,64.76
2017-07-18T09:01:56.057Z,64.76
2017-07-18T09:02:56.641Z,64.66
2017-07-18T09:03:57.221Z,65.24
2017-07-18T09:04:57.804Z,64.76
2017-07-18T09:05:58.399Z,63.76
2017-07-18T09:06:58.980Z,64.43
2017-07-18T09:07:59.564Z,64.66
2017-07-18T09:09:00.147Z,61.83
2017-07-18T09:10:00.729Z,62.66
2017-07-18T09:11:01.310Z,63.28
2017-07-18T09:12:01.905Z,63.98
2017-07-18T09:13:02.486Z,63.34
2017-07-18T09:14:03.068Z,62.63
2017-07-18T09:15:03.653Z,61.92
2017-07-18T09:16:04.245Z,62.37
2017-07-18T09:17:04.830Z,62.40
2017-07-18T09:18:05.414Z,62.92
2017-07-18T09:19:05.996Z,61.98
2017-07-18T09:20:06.594Z,60.53
2017-07-18T09:21:07.172Z,58.28
2017-07-18T09:22:07.753Z,60.34
2017-07-18T09:23:08.335Z,59.83
2017-07-18T09:24:08.920Z,60.41
2017-07-18T09:25:09.501Z,60.96
2017-07-18T09:26:10.083Z,62.73
2017-07-18T09:27:10.665Z,62.76
2017-07-18T09:28:11.250Z,61.05
2017-07-18T09:29:11.831Z,60.27
2017-07-18T09:30:12.414Z,58.92
2017-07-18T09:31:12.997Z,57.92
2017-07-18T09:32:13.581Z,59.31
2017-07-18T09:33:14.175Z,57.92
2017-07-18T09:34:14.763Z,58.12
2017-07-18T09:35:15.352Z,58.70
2017-07-18T09:36:15.933Z,59.18
2017-07-18T09:37:16.515Z,59.40
2017-07-18T09:38:17.099Z,58.63
2017-07-18T09:39:17.682Z,57.79
2017-07-18T09:40:18.264Z,59.89
2017-07-18T09:41:18.845Z,59.31
2017-07-18T09:42:19.428Z,58.56
2017-07-18T09:43:20.012Z,58.78
2017-07-18T09:44:20.594Z,57.81
2017-07-18T09:45:21.178Z,56.85
2017-07-18T09:46:21.761Z,56.94
2017-07-18T09:47:22.344Z,57.20
2017-07-18T09:48:22.928Z,59.72
2017-07-18T09:49:23.521Z,58.01
2017-07-18T09:50:24.117Z,57.37
2017-07-18T09:51:24.710Z,58.95
2017-07-18T09:52:25.292Z,57.23
2017-07-18T09:53:25.874Z,56.24
2017-07-18T09:54:26.458Z,55.56
2017-07-18T09:55:27.049Z,56.65
2017-07-18T09:56:27.629Z,55.58
2017-07-18T09:57:28.214Z,55.66
2017-07-18T09:58:28.798Z,57.04
2017-07-18T09:59:29.381Z,56.77
2017-07-18T10:00:41.280Z,55.62
2017-07-18T10:01:41.866Z,56.87
2017-07-18T10:02:42.448Z,57.07
2017-07-18T10:03:43.029Z,56.10
2017-07-18T10:04:43.613Z,55.90
2017-07-18T10:05:44.196Z,56.94
2017-07-18T10:06:44.780Z,56.97
2017-07-18T10:07:45.363Z,55.13
2017-07-18T10:08:45.948Z,56.49
2017-07-18T10:09:46.528Z,56.49
2017-07-18T10:10:47.113Z,54.27
2017-07-18T10:11:47.707Z,56.14
2017-07-18T10:12:48.291Z,55.53
2017-07-18T10:13:48.875Z,56.62
2017-07-18T10:14:49.459Z,55.73
2017-07-18T10:15:50.042Z,56.46
2017-07-18T10:16:50.623Z,55.81
2017-07-18T10:17:51.207Z,53.85
2017-07-18T10:18:51.789Z,54.91
2017-07-18T10:19:52.373Z,55.04
2017-07-18T10:20:52.958Z,54.58
2017-07-18T10:21:53.540Z,54.28
2017-07-18T10:22:54.135Z,53.99
2017-07-18T10:23:54.721Z,54.60
2017-07-18T10:24:55.327Z,53.44
2017-07-18T10:25:55.886Z,52.54
2017-07-18T10:26:56.468Z,53.24
2017-07-18T10:27:57.064Z,53.63
2017-07-18T10:28:57.648Z,52.25
2017-07-18T10:29:58.230Z,53.23
2017-07-18T10:30:58.812Z,55.30
2017-07-18T10:31:59.397Z,53.65
2017-07-18T10:32:59.980Z,54.64
2017-07-18T10:34:00.565Z,53.58
2017-07-18T10:35:01.147Z,55.16
2017-07-18T10:36:01.728Z,52.93
2017-07-18T10:37:02.314Z,52.32
2017-07-18T10:38:02.897Z,53.75
2017-07-18T10:39:03.482Z,54.86
2017-07-18T10:40:04.064Z,54.74
2017-07-18T10:41:04.646Z,53.85
2017-07-18T10:42:05.230Z,55.04
2017-07-18T10:43:05.814Z,54.28
2017-07-18T10:44:06.398Z,53.07
2017-07-18T10:45:07.009Z,54.39
2017-07-18T10:46:07.584Z,56.16
2017-07-18T10:47:08.161Z,54.35
2017-07-18T10:48:08.744Z,54.19
2017-07-18T10:49:09.327Z,52.64
2017-07-18T10:50:09.912Z,53.05
2017-07-18T10:51:10.495Z,52.15
2017-07-18T10:52:11.077Z,51.35
2017-07-18T10:53:11.661Z,52.87
2017-07-18T10:54:12.245Z,53.00
2017-07-18T10:55:12.830Z,53.23
2017-07-18T10:56:13.415Z,55.27
2017-07-18T10:57:13.997Z,55.85
2017-07-18T10:58:14.582Z,54.98
2017-07-18T10:59:15.165Z,54.95
2017-07-18T11:00:15.749Z,55.78
2017-07-18T11:01:16.332Z,55.20
2017-07-18T11:02:16.914Z,54.43
2017-07-18T11:03:17.498Z,55.04
2017-07-18T11:04:18.093Z,54.03
2017-07-18T11:05:18.677Z,54.06
2017-07-18T11:06:19.263Z,53.19
2017-07-18T11:07:19.845Z,53.19
2017-07-18T11:08:20.427Z,53.17
2017-07-18T11:09:21.009Z,54.55
2017-07-18T11:10:21.593Z,53.39
2017-07-18T11:11:22.176Z,52.97
2017-07-18T11:12:22.758Z,53.75
2017-07-18T11:13:23.342Z,54.13
2017-07-18T11:14:23.923Z,54.23
2017-07-18T11:15:24.507Z,54.74
2017-07-18T11:16:25.096Z,53.87
2017-07-18T11:17:25.672Z,54.16
2017-07-18T11:18:26.257Z,55.04
2017-07-18T11:19:26.851Z,55.08
2017-07-18T11:20:27.435Z,54.50
2017-07-18T11:21:28.017Z,55.96
2017-07-18T11:22:28.599Z,55.41
2017-07-18T11:23:29.183Z,53.56
2017-07-18T11:24:29.767Z,49.66
2017-07-18T11:25:30.350Z,51.40
2017-07-18T11:26:30.931Z,50.82
2017-07-18T11:27:31.513Z,50.62
2017-07-18T11:28:32.108Z,49.95
2017-07-18T11:29:32.692Z,49.24
2017-07-18T11:30:33.277Z,50.99
2017-07-18T11:31:33.871Z,50.12
2017-07-18T11:32:34.456Z,51.18
2017-07-18T11:33:35.039Z,52.28
2017-07-18T11:34:35.622Z,51.18
2017-07-18T11:35:36.206Z,49.10
2017-07-18T11:36:36.789Z,49.15
2017-07-18T11:37:37.383Z,50.02
2017-07-18T11:38:37.966Z,51.47
2017-07-18T11:39:38.551Z,51.86
2017-07-18T11:40:39.135Z,51.28
2017-07-18T11:41:39.723Z,50.21
2017-07-18T11:42:40.320Z,52.25
2017-07-18T11:43:40.914Z,51.09
2017-07-18T11:44:41.489Z,51.06
2017-07-18T11:45:42.074Z,51.37
2017-07-18T11:46:42.659Z,51.53
2017-07-18T11:47:43.243Z,49.90
2017-07-18T11:48:43.828Z,48.64
2017-07-18T11:49:44.412Z,49.15
2017-07-18T11:50:44.998Z,48.75
2017-07-18T11:51:45.585Z,49.63
2017-07-18T11:52:46.167Z,49.97
2017-07-18T11:53:46.752Z,49.80
2017-07-18T11:54:47.337Z,49.02
2017-07-18T11:55:47.920Z,48.73
2017-07-18T11:56:48.503Z,47.78
2017-07-18T11:57:49.088Z,46.74
2017-07-18T11:58:49.674Z,46.64
2017-07-18T11:59:50.259Z,46.45
2017-07-18T12:00:50.842Z,46.45
2017-07-18T12:01:51.428Z,46.74
2017-07-18T12:02:52.011Z,47.52
2017-07-18T12:03:52.604Z,47.52
2017-07-18T12:04:53.195Z,45.80
2017-07-18T12:05:53.778Z,47.98
2017-07-18T12:06:54.364Z,47.88
2017-07-18T12:07:54.949Z,47.71
2017-07-18T12:08:55.533Z,47.30
2017-07-18T12:09:56.126Z,48.52
2017-07-18T12:10:56.701Z,49.02
2017-07-18T12:11:57.287Z,49.22
2017-07-18T12:12:57.882Z,49.15
2017-07-18T12:13:58.479Z,49.27
2017-07-18T12:14:59.065Z,48.95
2017-07-18T12:15:59.659Z,49.66
2017-07-18T12:17:00.242Z,48.64
2017-07-18T12:18:00.839Z,50.02
2017-07-18T12:19:01.423Z,50.24
2017-07-18T12:20:02.007Z,48.66
2017-07-18T12:21:02.594Z,49.61
2017-07-18T12:22:03.178Z,49.27
2017-07-18T12:23:03.762Z,48.51
2017-07-18T12:24:04.364Z,47.25
2017-07-18T12:25:04.949Z,47.05
2017-07-18T12:26:05.532Z,47.34
2017-07-18T12:27:06.120Z,48.22
2017-07-18T12:28:06.703Z,47.93
2017-07-18T12:29:07.298Z,48.61
2017-07-18T12:30:07.884Z,48.80
2017-07-18T12:31:08.470Z,48.13
2017-07-18T12:32:09.060Z,47.01
2017-07-18T12:33:09.651Z,49.37
2017-07-18T12:34:10.231Z,47.91
2017-07-18T12:35:10.813Z,49.78
2017-07-18T12:36:11.412Z,48.71
2017-07-18T12:37:11.985Z,48.05
2017-07-18T12:38:12.583Z,47.27
2017-07-18T12:39:13.168Z,46.08
2017-07-18T12:40:13.754Z,48.41
2017-07-18T12:41:14.339Z,48.41
2017-07-18T12:42:14.926Z,48.63
2017-07-18T12:43:15.510Z,47.76
2017-07-18T12:44:16.094Z,45.89
2017-07-18T12:45:16.679Z,48.39
2017-07-18T12:46:17.264Z,48.61
2017-07-18T12:47:17.850Z,48.10
2017-07-18T12:48:18.435Z,48.63
2017-07-18T12:49:19.019Z,46.67
2017-07-18T12:50:19.605Z,47.23
2017-07-18T12:51:20.190Z,48.64
2017-07-18T12:52:20.779Z,49.39
2017-07-18T12:53:21.365Z,48.73
2017-07-18T12:54:21.961Z,48.61
2017-07-18T12:55:22.544Z,49.51
2017-07-18T12:56:23.132Z,48.42
2017-07-18T12:57:23.718Z,50.04
2017-07-18T12:58:24.305Z,49.77
2017-07-18T12:59:24.901Z,50.14
2017-07-18T13:00:25.498Z,50.24